Time;durP1;ratioP1;P1;durP2;ratioP2;P2;SDS_P1;SDS_P2;PMS_P1;PMS_P2;Temp;Humidity;BMP_temperature;BMP_pressure;BME280_temperature;BME280_humidity;BME280_pressure;Samples;Min_cycle;Max_cycle;Signal;HPM_P1;HPM_P2
2023/12/20 00:02:21;;;;;;;0.10;0.10;;;;;;;;;;4929754;29;20131;-92
2023/12/20 00:04:47;;;;;;;0.00;0.00;;;;;;;;;;4917868;29;20052;-93
2023/12/20 00:07:13;;;;;;;0.00;0.00;;;;;;;;;;4919691;29;20032;-92
2023/12/20 00:09:38;;;;;;;0.05;0.05;;;;;;;;;;4921632;29;20123;-90
2023/12/20 00:12:04;;;;;;;0.10;0.10;;;;;;;;;;4917616;29;20035;-93
2023/12/20 00:14:30;;;;;;;0.10;0.10;;;;;;;;;;4913190;29;20042;-92
2023/12/20 00:16:56;;;;;;;0.00;0.00;;;;;;;;;;4923639;29;20115;-92
2023/12/20 00:19:22;;;;;;;0.10;0.10;;;;;;;;;;4936558;29;20119;-92
2023/12/20 00:21:48;;;;;;;0.10;0.10;;;;;;;;;;4920313;29;20036;-93
2023/12/20 00:24:14;;;;;;;0.10;0.10;;;;;;;;;;4915675;29;20039;-93
2023/12/20 00:26:40;;;;;;;0.00;0.00;;;;;;;;;;4908581;29;20123;-92
2023/12/20 00:29:06;;;;;;;0.00;0.00;;;;;;;;;;4928067;29;20164;-92
2023/12/20 00:31:32;;;;;;;0.00;0.00;;;;;;;;;;4935055;29;20123;-93
2023/12/20 00:33:58;;;;;;;0.10;0.10;;;;;;;;;;4916349;29;20399;-93
2023/12/20 00:36:24;;;;;;;0.10;0.10;;;;;;;;;;4923695;29;20112;-93
2023/12/20 00:38:51;;;;;;;0.10;0.10;;;;;;;;;;4933278;29;20103;-93
2023/12/20 00:41:19;;;;;;;0.00;0.00;;;;;;;;;;4919131;29;20038;-91
2023/12/20 00:43:48;;;;;;;0.00;0.00;;;;;;;;;;4932719;29;20052;-92
2023/12/20 00:46:14;;;;;;;0.10;0.10;;;;;;;;;;4920025;29;20031;-92
2023/12/20 00:48:41;;;;;;;0.00;0.00;;;;;;;;;;4918900;29;20323;-91
2023/12/20 00:51:08;;;;;;;0.10;0.10;;;;;;;;;;4920411;29;20039;-90
2023/12/20 00:53:34;;;;;;;0.10;0.10;;;;;;;;;;4918411;29;20108;-91
2023/12/20 00:56:00;;;;;;;0.10;0.10;;;;;;;;;;4922249;29;20044;-91
2023/12/20 00:58:27;;;;;;;0.10;0.10;;;;;;;;;;4919779;29;20035;-91
2023/12/20 01:00:53;;;;;;;0.10;0.10;;;;;;;;;;4916366;29;20035;-90
2023/12/20 01:03:19;;;;;;;0.00;0.00;;;;;;;;;;4920957;29;20024;-91
2023/12/20 01:05:45;;;;;;;0.00;0.00;;;;;;;;;;4922633;29;20048;-91
2023/12/20 01:08:12;;;;;;;0.10;0.10;;;;;;;;;;4937007;29;20027;-90
2023/12/20 01:10:38;;;;;;;0.10;0.10;;;;;;;;;;4920203;29;20073;-94
2023/12/20 01:13:04;;;;;;;0.10;0.10;;;;;;;;;;4916808;29;20040;-91
2023/12/20 01:15:30;;;;;;;0.00;0.00;;;;;;;;;;4910851;29;20086;-92
2023/12/20 01:17:58;;;;;;;0.10;0.10;;;;;;;;;;4930634;29;20035;-91
2023/12/20 01:20:24;;;;;;;0.10;0.10;;;;;;;;;;4918819;29;20040;-91
2023/12/20 01:22:50;;;;;;;0.10;0.10;;;;;;;;;;4933384;29;20099;-92
2023/12/20 01:25:16;;;;;;;0.10;0.10;;;;;;;;;;4915488;29;20032;-92
2023/12/20 01:27:42;;;;;;;0.10;0.10;;;;;;;;;;4913994;29;20028;-91
2023/12/20 01:30:08;;;;;;;0.10;0.10;;;;;;;;;;4917032;29;20020;-92
2023/12/20 01:32:34;;;;;;;0.10;0.10;;;;;;;;;;4921166;29;20040;-93
2023/12/20 01:35:00;;;;;;;0.10;0.10;;;;;;;;;;4922234;29;20047;-93
2023/12/20 01:37:26;;;;;;;0.10;0.10;;;;;;;;;;4917577;29;20043;-92
2023/12/20 01:39:52;;;;;;;0.10;0.10;;;;;;;;;;4916131;29;20476;-92
2023/12/20 01:42:18;;;;;;;0.08;0.08;;;6.90;99.90;;;;;;4918411;29;20066;-92
2023/12/20 01:44:44;;;;;;;0.10;0.10;;;;;;;;;;4918784;29;20295;-92
2023/12/20 01:47:10;;;;;;;0.00;0.00;;;;;;;;;;4916716;29;20028;-91
2023/12/20 01:49:36;;;;;;;0.10;0.10;;;;;;;;;;4919881;29;20118;-92
2023/12/20 01:52:03;;;;;;;0.10;0.10;;;;;;;;;;4918111;29;20551;-92
2023/12/20 01:54:29;;;;;;;0.10;0.10;;;;;;;;;;4917933;29;20063;-94
2023/12/20 01:56:55;;;;;;;0.10;0.10;;;;;;;;;;4933883;29;20484;-92
2023/12/20 01:59:21;;;;;;;0.10;0.10;;;;;;;;;;4917775;29;20222;-91
2023/12/20 02:01:53;;;;;;;0.10;0.10;;;;;;;;;;4915140;29;20058;-93
2023/12/20 02:04:19;;;;;;;0.10;0.10;;;;;;;;;;4931813;29;20074;-92
2023/12/20 02:06:46;;;;;;;0.10;0.10;;;6.50;99.90;;;;;;4915933;29;20040;-93
2023/12/20 02:09:12;;;;;;;0.10;0.10;;;;;;;;;;4913813;29;20028;-92
2023/12/20 02:11:38;;;;;;;0.10;0.10;;;;;;;;;;4909143;29;20476;-90
2023/12/20 02:14:04;;;;;;;0.10;0.10;;;;;;;;;;4915699;29;20430;-92
2023/12/20 02:16:30;;;;;;;0.10;0.10;;;;;;;;;;4914496;29;20028;-92
2023/12/20 02:18:56;;;;;;;0.10;0.10;;;;;;;;;;4916260;29;20024;-92
2023/12/20 02:21:32;;;;;;;0.10;0.10;;;6.30;99.90;;;;;;4932767;29;20036;-93
2023/12/20 02:23:58;;;;;;;0.10;0.10;;;;;;;;;;4933717;28;20051;-93
2023/12/20 02:26:24;;;;;;;0.10;0.10;;;;;;;;;;4934188;28;20020;-93
2023/12/20 02:28:50;;;;;;;0.10;0.10;;;;;;;;;;4950137;28;20040;-94
2023/12/20 02:31:16;;;;;;;0.10;0.10;;;;;;;;;;4944524;28;20077;-93
2023/12/20 02:33:42;;;;;;;0.10;0.10;;;;;;;;;;4921199;29;20032;-92
2023/12/20 02:36:08;;;;;;;0.08;0.08;;;;;;;;;;4914204;29;20373;-91
2023/12/20 02:38:34;;;;;;;0.10;0.10;;;;;;;;;;4917075;29;20036;-91
2023/12/20 02:41:00;;;;;;;0.10;0.10;;;;;;;;;;4914310;29;20056;-92
2023/12/20 02:43:26;;;;;;;0.10;0.10;;;;;;;;;;4921302;29;20041;-92
2023/12/20 02:45:52;;;;;;;0.10;0.10;;;;;;;;;;4915226;29;20039;-92
2023/12/20 02:48:18;;;;;;;0.10;0.10;;;;;;;;;;4914998;29;20543;-92
2023/12/20 02:50:46;;;;;;;0.10;0.10;;;6.00;99.90;;;;;;4933451;29;20488;-92
2023/12/20 02:53:12;;;;;;;0.10;0.10;;;;;;;;;;4915001;29;20036;-93
2023/12/20 02:55:38;;;;;;;0.10;0.10;;;;;;;;;;4926126;29;20036;-93
2023/12/20 02:58:04;;;;;;;0.00;0.00;;;;;;;;;;4915982;29;20032;-93
2023/12/20 03:00:30;;;;;;;0.10;0.10;;;;;;;;;;4933395;29;20031;-93
2023/12/20 03:02:56;;;;;;;0.10;0.10;;;;;;;;;;4914982;29;20052;-92
2023/12/20 03:05:21;;;;;;;0.10;0.10;;;;;;;;;;4915939;29;20092;-92
2023/12/20 03:07:47;;;;;;;0.10;0.10;;;6.20;99.90;;;;;;4915809;29;20032;-92
2023/12/20 03:10:13;;;;;;;0.10;0.10;;;;;;;;;;4915508;29;20032;-92
2023/12/20 03:12:39;;;;;;;0.10;0.10;;;;;;;;;;4913377;29;20051;-91
2023/12/20 03:15:05;;;;;;;0.10;0.10;;;;;;;;;;4912179;29;21414;-92
2023/12/20 03:17:31;;;;;;;0.10;0.10;;;;;;;;;;4919092;29;20067;-93
2023/12/20 03:20:00;;;;;;;0.10;0.10;;;;;;;;;;4914443;29;20036;-92
2023/12/20 03:22:26;;;;;;;0.10;0.10;;;;;;;;;;4917849;29;20036;-93
2023/12/20 03:24:51;;;;;;;0.10;0.10;;;;;;;;;;4917172;29;20040;-92
2023/12/20 03:27:17;;;;;;;0.10;0.10;;;;;;;;;;4915716;29;20031;-92
2023/12/20 03:29:43;;;;;;;0.10;0.10;;;;;;;;;;4917238;29;20436;-93
2023/12/20 03:32:09;;;;;;;0.10;0.10;;;;;;;;;;4918051;29;20059;-93
2023/12/20 03:34:35;;;;;;;0.08;0.08;;;;;;;;;;4918451;29;20060;-93
2023/12/20 03:37:01;;;;;;;0.10;0.10;;;;;;;;;;4917162;29;20063;-92
2023/12/20 03:39:27;;;;;;;0.10;0.10;;;;;;;;;;4919370;29;20476;-92
2023/12/20 03:41:53;;;;;;;0.10;0.10;;;;;;;;;;4919507;29;20051;-92
2023/12/20 03:44:20;;;;;;;0.10;0.10;;;;;;;;;;4919645;29;20063;-92
2023/12/20 03:46:46;;;;;;;0.10;0.10;;;;;;;;;;4936075;29;20096;-90
2023/12/20 03:49:12;;;;;;;0.10;0.10;;;;;;;;;;4918191;29;20123;-91
2023/12/20 03:51:38;;;;;;;0.10;0.10;;;;;;;;;;4921587;29;20060;-90
2023/12/20 03:54:04;;;;;;;0.10;0.10;;;;;;;;;;4922426;29;20055;-92
2023/12/20 03:56:30;;;;;;;0.10;0.10;;;;;;;;;;4923264;29;20511;-92
2023/12/20 03:58:56;;;;;;;0.10;0.10;;;;;;;;;;4931432;29;20407;-91
2023/12/20 04:01:22;;;;;;;0.10;0.10;;;;;;;;;;4924205;29;20032;-92
2023/12/20 04:03:47;;;;;;;0.10;0.10;;;;;;;;;;4922707;29;20091;-92
2023/12/20 04:06:17;;;;;;;0.03;0.03;;;;;;;;;;4919435;29;20544;-92
2023/12/20 04:08:43;;;;;;;0.10;0.10;;;;;;;;;;4921563;29;20503;-92
2023/12/20 04:11:09;;;;;;;0.10;0.10;;;;;;;;;;4920324;29;20043;-92
2023/12/20 04:13:35;;;;;;;0.10;0.10;;;;;;;;;;4915811;29;20036;-93
2023/12/20 04:16:01;;;;;;;0.10;0.10;;;;;;;;;;4921449;29;20126;-92
2023/12/20 04:18:28;;;;;;;0.10;0.10;;;;;;;;;;4917483;29;20067;-92
2023/12/20 04:20:54;;;;;;;0.10;0.10;;;;;;;;;;4936842;29;20043;-91
2023/12/20 04:23:20;;;;;;;0.10;0.10;;;;;;;;;;4936241;29;20028;-92
2023/12/20 04:25:46;;;;;;;0.10;0.10;;;;;;;;;;4920870;29;20032;-92
2023/12/20 04:28:12;;;;;;;0.10;0.10;;;;;;;;;;4921973;29;20062;-92
2023/12/20 04:30:38;;;;;;;0.10;0.10;;;;;;;;;;4918074;29;20051;-93
2023/12/20 04:33:04;;;;;;;0.10;0.10;;;;;;;;;;4920535;29;20114;-94
2023/12/20 04:35:30;;;;;;;0.10;0.10;;;;;;;;;;4920747;29;20448;-92
2023/12/20 04:37:56;;;;;;;0.10;0.10;;;;;;;;;;4916650;29;20040;-92
2023/12/20 04:40:22;;;;;;;0.10;0.10;;;;;;;;;;4923509;29;20040;-91
2023/12/20 04:42:48;;;;;;;0.10;0.10;;;;;;;;;;4939801;29;20034;-90
2023/12/20 04:45:15;;;;;;;0.10;0.10;;;;;;;;;;4916008;29;20586;-91
2023/12/20 04:47:42;;;;;;;0.10;0.10;;;6.50;99.90;;;;;;4909897;29;20024;-91
2023/12/20 04:50:08;;;;;;;0.10;0.10;;;6.50;99.90;;;;;;4941397;29;20042;-90
2023/12/20 04:52:34;;;;;;;0.10;0.10;;;;;;;;;;4921372;29;20032;-91
2023/12/20 04:54:59;;;;;;;0.10;0.10;;;;;;;;;;4919942;29;20040;-92
2023/12/20 04:57:25;;;;;;;0.10;0.10;;;;;;;;;;4931946;29;20044;-92
2023/12/20 04:59:51;;;;;;;0.10;0.10;;;;;;;;;;4923015;29;20035;-93
2023/12/20 05:02:17;;;;;;;0.10;0.10;;;;;;;;;;4929254;29;20048;-93
2023/12/20 05:04:43;;;;;;;0.10;0.10;;;;;;;;;;4914459;29;20035;-93
2023/12/20 05:07:09;;;;;;;0.10;0.10;;;;;;;;;;4931241;29;20032;-92
2023/12/20 05:09:35;;;;;;;0.10;0.10;;;;;;;;;;4915018;29;20039;-94
2023/12/20 05:12:01;;;;;;;0.10;0.10;;;;;;;;;;4927236;29;20036;-92
2023/12/20 05:14:27;;;;;;;0.10;0.10;;;;;;;;;;4919587;29;20036;-92
2023/12/20 05:16:53;;;;;;;0.10;0.10;;;;;;;;;;4929193;29;20444;-92
2023/12/20 05:19:19;;;;;;;0.10;0.10;;;;;;;;;;4920115;29;20380;-93
2023/12/20 05:21:44;;;;;;;0.10;0.10;;;;;;;;;;4933891;29;20040;-93
2023/12/20 05:24:10;;;;;;;0.10;0.10;;;;;;;;;;4921722;29;20032;-92
2023/12/20 05:26:36;;;;;;;0.10;0.10;;;;;;;;;;4936433;29;20028;-92
2023/12/20 05:29:02;;;;;;;0.10;0.10;;;;;;;;;;4917151;29;20028;-91
2023/12/20 05:31:28;;;;;;;0.10;0.10;;;;;;;;;;4919102;29;20036;-91
2023/12/20 05:33:54;;;;;;;0.10;0.10;;;;;;;;;;4918640;29;20127;-92
2023/12/20 05:36:20;;;;;;;0.10;0.10;;;;;;;;;;4919954;29;20040;-93
2023/12/20 05:38:46;;;;;;;0.10;0.10;;;;;;;;;;4918842;29;20504;-91
2023/12/20 05:41:12;;;;;;;0.10;0.10;;;;;;;;;;4918725;29;20032;-92
2023/12/20 05:43:38;;;;;;;0.10;0.10;;;;;;;;;;4921802;29;20092;-92
2023/12/20 05:46:04;;;;;;;0.10;0.10;;;;;;;;;;4913910;29;20121;-92
2023/12/20 05:48:30;;;;;;;0.10;0.10;;;;;;;;;;4920896;29;20499;-92
2023/12/20 05:50:56;;;;;;;0.10;0.10;;;;;;;;;;4940897;28;20036;-95
2023/12/20 05:53:22;;;;;;;0.10;0.10;;;;;;;;;;4933140;29;20083;-92
2023/12/20 05:55:48;;;;;;;0.10;0.10;;;;;;;;;;4914568;29;20028;-93
2023/12/20 05:58:14;;;;;;;0.10;0.10;;;;;;;;;;4921818;29;20031;-92
2023/12/20 06:00:39;;;;;;;0.00;0.00;;;;;;;;;;4914201;29;20028;-93
2023/12/20 06:03:05;;;;;;;0.00;0.00;;;;;;;;;;4918313;29;20039;-93
2023/12/20 06:05:31;;;;;;;0.00;0.00;;;;;;;;;;4916929;29;20040;-92
2023/12/20 06:08:01;;;;;;;0.10;0.10;;;;;;;;;;4917583;29;20024;-92
2023/12/20 06:10:27;;;;;;;0.10;0.10;;;;;;;;;;4916762;29;20039;-92
2023/12/20 06:12:53;;;;;;;0.10;0.10;;;;;;;;;;4916232;29;20043;-92
2023/12/20 06:15:19;;;;;;;0.10;0.10;;;;;;;;;;4917256;29;20032;-93
2023/12/20 06:17:46;;;;;;;0.10;0.10;;;;;;;;;;4920426;29;20040;-92
2023/12/20 06:20:21;;;;;;;0.10;0.10;;;;;;;;;;4921740;29;20032;-93
2023/12/20 06:22:47;;;;;;;0.10;0.10;;;;;;;;;;4915444;29;20107;-91
2023/12/20 06:25:13;;;;;;;0.10;0.10;;;;;;;;;;4915439;29;20059;-92
2023/12/20 06:27:39;;;;;;;0.10;0.10;;;;;;;;;;4915267;29;20043;-92
2023/12/20 06:30:05;;;;;;;0.10;0.10;;;;;;;;;;4918202;29;20034;-93
2023/12/20 06:35:36;;;;;;;0.10;0.10;;;;;;;;;;4928256;29;20038;-94
2023/12/20 06:38:02;;;;;;;0.08;0.08;;;;;;;;;;4929717;29;20029;-94
2023/12/20 06:40:28;;;;;;;0.00;0.00;;;;;;;;;;4930281;29;20028;-94
2023/12/20 06:42:54;;;;;;;0.10;0.10;;;;;;;;;;4937951;29;20012;-95
2023/12/20 06:45:20;;;;;;;0.00;0.00;;;;;;;;;;4935669;29;20068;-93
2023/12/20 06:47:46;;;;;;;0.10;0.10;;;;;;;;;;4935583;29;20036;-93
2023/12/20 06:50:12;;;;;;;0.10;0.10;;;;;;;;;;4934262;29;20032;-94
2023/12/20 06:52:38;;;;;;;0.00;0.00;;;;;;;;;;4933773;29;20081;-94
2023/12/20 06:55:04;;;;;;;0.10;0.10;;;;;;;;;;4933307;29;20127;-95
2023/12/20 06:57:30;;;;;;;0.10;0.10;;;;;;;;;;4934475;29;20457;-94
2023/12/20 06:59:57;;;;;;;0.10;0.10;;;;;;;;;;4935447;29;20036;-94
2023/12/20 07:02:23;;;;;;;0.00;0.00;;;;;;;;;;4931216;29;20016;-93
2023/12/20 07:04:49;;;;;;;0.10;0.10;;;;;;;;;;4935027;29;20053;-94
2023/12/20 07:07:15;;;;;;;0.10;0.10;;;;;;;;;;4948036;29;20487;-93
2023/12/20 07:09:42;;;;;;;0.08;0.08;;;;;;;;;;4929973;29;20020;-91
2023/12/20 07:12:09;;;;;;;0.00;0.00;;;;;;;;;;4936455;29;20092;-94
2023/12/20 07:14:35;;;;;;;0.10;0.10;;;;;;;;;;4930610;29;20032;-94
2023/12/20 07:17:01;;;;;;;0.10;0.10;;;;;;;;;;4934706;29;20016;-94
2023/12/20 07:19:27;;;;;;;0.10;0.10;;;;;;;;;;4923167;29;20043;-92
2023/12/20 07:21:53;;;;;;;0.10;0.10;;;;;;;;;;4919976;29;20004;-91
2023/12/20 07:24:19;;;;;;;0.10;0.10;;;;;;;;;;4946854;29;20058;-94
2023/12/20 07:26:45;;;;;;;0.10;0.10;;;;;;;;;;4936102;29;20039;-94
2023/12/20 07:29:11;;;;;;;0.00;0.00;;;;;;;;;;4930586;29;20024;-93
2023/12/20 07:31:38;;;;;;;0.00;0.00;;;;;;;;;;4948304;29;20028;-93
2023/12/20 07:34:04;;;;;;;0.10;0.10;;;;;;;;;;4928779;29;20039;-94
2023/12/20 07:36:30;;;;;;;0.00;0.00;;;;;;;;;;4932150;29;20028;-94
2023/12/20 07:38:56;;;;;;;0.10;0.10;;;;;;;;;;4936137;29;20068;-95
2023/12/20 07:41:23;;;;;;;0.10;0.10;;;;;;;;;;4933059;29;20104;-94
2023/12/20 07:43:49;;;;;;;0.10;0.10;;;;;;;;;;4934784;29;20507;-94
2023/12/20 09:16:15;;;;;;;;;;;7.00;99.90;;;;;;4938297;29;20024;-82
2023/12/20 09:18:41;;;;;;;0.10;0.10;;;;;;;;;;4957802;28;19899;-86
2023/12/20 09:21:07;;;;;;;0.00;0.00;;;;;;;;;;4937681;28;20035;-85
2023/12/20 09:23:33;;;;;;;0.08;0.08;;;;;;;;;;4948432;28;20032;-84
2023/12/20 09:25:59;;;;;;;0.10;0.10;;;;;;;;;;4939562;28;20036;-85
2023/12/20 10:51:18;;;;;;;0.10;0.10;;;7.20;99.90;;;;;;4938938;28;20056;-85
2023/12/20 10:53:45;;;;;;;0.10;0.10;;;7.30;99.90;;;;;;4938472;28;20103;-88
2023/12/20 10:56:15;;;;;;;0.00;0.00;;;7.40;99.90;;;;;;4953183;28;20024;-85
2023/12/20 10:58:43;;;;;;;0.00;0.00;;;7.40;99.90;;;;;;4937861;28;20095;-85
2023/12/20 11:01:09;;;;;;;0.10;0.10;;;;;;;;;;4935955;28;20032;-86
